If you wish to contribute or participate in the discussions about articles you are invited to join SKYbrary as a registered user

 Actions

Cherbourg-Maupertus Airport

From SKYbrary Wiki

LFRC
Airport
ICAO: LFRC – IATA: CER
Summary
Name Cherbourg-Maupertus Airport
Region Europe
Territory France FR.gif
Location , Basse-Normandie
Serving Cherbourg
Elevation 139.903 m
459 ft
459 ft139.903 m
Type medium airport
Coordinates 49° 39' 0.38" N, 1° 28' 13.01" W
Runways
Designator Length Width Surface ROPS
10/28 2440 m8,005.249 ft
45 m147.638 ft
ASP /


METAR
Observation LFRC 191400Z AUTO 32005KT 290V360 3200 BR BKN004 BKN038 OVC074 12/11 Q1010 TEMPO SHRA BKN020TCU
Station Cherbourg / Maupertus
Date/Time 19 May 2019 14:00:00
Wind direction 320°
Wind speed 05 kts
Lowest cloud amount broken clouds
Temperature 12°C
Dew point 11°C
Humidity 93%
QNH 1010 hPa
Weather condition n/a